Terminal Aerodrome Forecast
Issued by NWS Denver/Boulder, CO

Home | Current Version | Previous Version | Text Only | Print | Product List | Glossary On
Versions: 1 2 3 4 5 6 7 8 9 10 11 12 13 14 15 16 17 18 19 20 21 22 23 24 25 26 27 28 29 30 31 32 33 34 35 36 37 38 39 40 41 42 43 44 45 46 47 48 49 50
000
FTUS45 KBOU 231720
TAFDEN
TAF
KDEN 231720Z 2318/2424 22010KT P6SM SCT150 BKN220
     FM232000 26011KT P6SM SCT150 BKN220
     FM240100 23011KT P6SM FEW080 BKN150
     FM241200 18011KT P6SM FEW080
     FM241600 26008KT P6SM SCT080
     FM241800 35013G23KT P6SM BKN080=

USA.gov is the U.S. government's official web portal to all federal, state and local government web resources and services.